Time;durP1;ratioP1;P1;durP2;ratioP2;P2;SDS_P1;SDS_P2;PMS_P1;PMS_P2;Temp;Humidity;BMP_temperature;BMP_pressure;BME280_temperature;BME280_humidity;BME280_pressure;Samples;Min_cycle;Max_cycle;Signal;HPM_P1;HPM_P2
2022/03/27 00:00:39;;;;;;;;;;;8.80;99.90;;;;;;5009701;28;19936;-83
2022/03/27 00:03:08;;;;;;;;;;;8.40;99.90;;;;;;4992069;28;19940;-79
2022/03/27 00:05:36;;;;;;;;;;;8.70;99.90;;;;;;4989438;28;19932;-79
2022/03/27 00:08:08;;;;;;;;;;;8.70;99.90;;;;;;4995132;28;19936;-80
2022/03/27 00:13:25;;;;;;;;;;;8.60;99.90;;;;;;4970201;28;19926;-78
2022/03/27 00:15:53;;;;;;;;;;;8.60;99.90;;;;;;4986939;28;19934;-81
2022/03/27 00:18:26;;;;;;;;;;;8.60;99.90;;;;;;4987867;28;19926;-80
2022/03/27 00:20:54;;;;;;;;;;;8.50;99.90;;;;;;4989399;28;19946;-81
2022/03/27 00:23:21;;;;;;;;;;;8.60;99.90;;;;;;4972430;28;19927;-81
2022/03/27 00:25:50;;;;;;;;;;;8.50;99.90;;;;;;4986866;28;19926;-80
2022/03/27 00:28:18;;;;;;;;;;;8.60;99.90;;;;;;4988791;28;19926;-81
2022/03/27 00:30:47;;;;;;;;;;;8.40;99.90;;;;;;4988686;28;19927;-80
2022/03/27 00:33:18;;;;;;;;;;;8.30;99.90;;;;;;4988923;28;19944;-79
2022/03/27 00:35:46;;;;;;;;;;;8.40;99.90;;;;;;4988761;28;19933;-80
2022/03/27 00:38:14;;;;;;;;;;;8.30;99.90;;;;;;4988253;28;19930;-80
2022/03/27 00:40:43;;;;;;;;;;;7.70;99.90;;;;;;4989826;28;19930;-85
2022/03/27 00:43:13;;;;;;;;;;;8.30;99.90;;;;;;4989386;28;19968;-81
2022/03/27 00:45:41;;;;;;;;;;;8.20;99.90;;;;;;4974321;28;19930;-80
2022/03/27 00:48:10;;;;;;;;;;;8.60;99.90;;;;;;4973399;28;19936;-83
2022/03/27 00:50:39;;;;;;;;;;;8.30;99.90;;;;;;4990443;28;19937;-80
2022/03/27 00:53:09;;;;;;;;;;;6.70;99.90;;;;;;4990577;28;19937;-82
2022/03/27 00:55:37;;;;;;;;;;;8.30;99.90;;;;;;4992034;28;19930;-82
2022/03/27 00:58:08;;;;;;;;;;;9.20;99.90;;;;;;4989505;28;19925;-80
2022/03/27 01:00:39;;;;;;;;;;;6.70;99.90;;;;;;4998953;28;19937;-83
2022/03/27 01:03:17;;;;;;;;;;;8.30;99.90;;;;;;4984583;28;19926;-85
2022/03/27 01:05:45;;;;;;;;;;;8.10;99.90;;;;;;4987395;28;19945;-84
2022/03/27 01:08:13;;;;;;;;;;;8.00;99.90;;;;;;4971181;28;19945;-85
2022/03/27 01:10:41;;;;;;;;;;;8.20;99.90;;;;;;5011611;28;19913;-85
2022/03/27 01:13:18;;;;;;;;;;;8.00;99.90;;;;;;4992151;28;19929;-83
2022/03/27 01:15:51;;;;;;;;;;;8.00;99.90;;;;;;5009206;28;19952;-86
2022/03/27 01:18:20;;;;;;;;;;;8.10;99.90;;;;;;5008788;28;19926;-84
2022/03/27 01:20:48;;;;;;;;;;;8.10;99.90;;;;;;5009103;28;19933;-88
2022/03/27 01:23:16;;;;;;;;;;;8.10;99.90;;;;;;5027361;28;19925;-85
2022/03/27 01:25:46;;;;;;;;;;;8.00;99.90;;;;;;5009119;28;19932;-83
2022/03/27 01:28:16;;;;;;;;;;;7.80;99.90;;;;;;4975921;28;19932;-83
2022/03/27 01:30:45;;;;;;;;;;;7.90;99.90;;;;;;5024587;28;19930;-85
2022/03/27 01:33:13;;;;;;;;;;;7.90;99.90;;;;;;5008018;28;19933;-84
2022/03/27 01:35:42;;;;;;;;;;;7.90;99.90;;;;;;4991299;28;19926;-85
2022/03/27 01:38:10;;;;;;;;;;;7.80;99.90;;;;;;5024783;28;19930;-83
2022/03/27 01:40:39;;;;;;;;;;;7.60;99.90;;;;;;5025046;28;19926;-85
2022/03/27 01:43:07;;;;;;;;;;;7.80;99.90;;;;;;5006214;28;19941;-84
2022/03/27 01:45:35;;;;;;;;;;;9.40;99.90;;;;;;5006060;28;19930;-83
2022/03/27 01:48:03;;;;;;;;;;;7.70;99.90;;;;;;5025837;28;19925;-86
2022/03/27 01:50:31;;;;;;;;;;;7.70;99.90;;;;;;5025244;28;20691;-84
2022/03/27 01:52:59;;;;;;;;;;;7.70;99.90;;;;;;4992496;28;19925;-85
2022/03/27 01:55:26;;;;;;;;;;;7.70;99.90;;;;;;5009300;28;19925;-84
2022/03/27 01:57:54;;;;;;;;;;;7.70;99.90;;;;;;5008898;28;19929;-84
2022/03/27 02:00:22;;;;;;;;;;;7.60;99.90;;;;;;4989291;28;19940;-85
2022/03/27 02:02:52;;;;;;;;;;;7.70;99.90;;;;;;5023405;28;19936;-85
2022/03/27 02:05:21;;;;;;;;;;;7.60;99.90;;;;;;5005560;28;19929;-84
2022/03/27 02:07:49;;;;;;;;;;;6.00;99.90;;;;;;4988834;28;19929;-85
2022/03/27 02:10:18;;;;;;;;;;;7.80;99.90;;;;;;4980061;28;19926;-84
2022/03/27 02:12:46;;;;;;;;;;;9.10;99.90;;;;;;4970528;28;19930;-84
2022/03/27 02:15:14;;;;;;;;;;;7.80;99.90;;;;;;4989155;28;19930;-83
2022/03/27 02:17:41;;;;;;;;;;;7.30;99.90;;;;;;4988159;28;19952;-83
2022/03/27 02:20:12;;;;;;;;;;;7.50;99.90;;;;;;4990274;28;19930;-84
2022/03/27 02:22:42;;;;;;;;;;;7.70;99.90;;;;;;4990230;28;19926;-86
2022/03/27 02:25:13;;;;;;;;;;;7.50;99.90;;;;;;4988159;28;19926;-83
2022/03/27 02:27:41;;;;;;;;;;;7.40;99.90;;;;;;4986360;28;19932;-84
2022/03/27 02:30:11;;;;;;;;;;;7.50;99.90;;;;;;4986327;28;19926;-83
2022/03/27 02:32:39;;;;;;;;;;;7.30;99.90;;;;;;4985284;28;20419;-84
2022/03/27 02:35:07;;;;;;;;;;;7.30;99.90;;;;;;4985121;28;19945;-84
2022/03/27 02:37:42;;;;;;;;;;;7.90;99.90;;;;;;4984613;28;19933;-84
2022/03/27 02:40:11;;;;;;;;;;;7.30;99.90;;;;;;4984208;28;19933;-87
2022/03/27 02:42:39;;;;;;;;;;;7.40;99.90;;;;;;4968345;28;19926;-84
2022/03/27 02:45:08;;;;;;;;;;;7.30;99.90;;;;;;4967995;28;19930;-83
2022/03/27 02:47:35;;;;;;;;;;;7.30;99.90;;;;;;4968077;28;19930;-83
2022/03/27 02:50:06;;;;;;;;;;;7.20;99.90;;;;;;4968347;28;19945;-84
2022/03/27 02:52:35;;;;;;;;;;;7.30;99.90;;;;;;4983066;28;19930;-86
2022/03/27 02:55:03;;;;;;;;;;;7.40;99.90;;;;;;4984422;28;19926;-84
2022/03/27 02:57:31;;;;;;;;;;;7.30;99.90;;;;;;4968110;28;19926;-84
2022/03/27 02:59:59;;;;;;;;;;;7.10;99.90;;;;;;4984827;28;19937;-82
2022/03/27 03:02:27;;;;;;;;;;;7.20;99.90;;;;;;4984047;28;19936;-84
2022/03/27 03:04:55;;;;;;;;;;;7.40;99.90;;;;;;4983519;28;19926;-85
2022/03/27 03:07:23;;;;;;;;;;;7.30;99.90;;;;;;4985904;28;20217;-86
2022/03/27 03:09:51;;;;;;;;;;;7.10;99.90;;;;;;4999536;28;19925;-85
2022/03/27 03:12:21;;;;;;;;;;;7.00;99.90;;;;;;5018166;28;19932;-87
2022/03/27 03:14:52;;;;;;;;;;;7.00;99.90;;;;;;5011894;28;19929;-84
2022/03/27 03:17:20;;;;;;;;;;;7.10;99.90;;;;;;5011241;28;19925;-85
2022/03/27 03:19:48;;;;;;;;;;;7.00;99.90;;;;;;5011744;28;19935;-82
2022/03/27 03:22:16;;;;;;;;;;;7.00;99.90;;;;;;5009653;28;20402;-84
2022/03/27 03:24:44;;;;;;;;;;;5.70;99.90;;;;;;5010716;28;20108;-83
2022/03/27 03:27:12;;;;;;;;;;;7.10;99.90;;;;;;5027945;28;20535;-83
2022/03/27 03:29:40;;;;;;;;;;;6.90;99.90;;;;;;4994618;28;19931;-84
2022/03/27 03:32:11;;;;;;;;;;;6.90;99.90;;;;;;4990406;28;19925;-84
2022/03/27 03:34:39;;;;;;;;;;;6.60;99.90;;;;;;4989888;28;19944;-83
2022/03/27 03:37:07;;;;;;;;;;;6.90;99.90;;;;;;4974189;28;19933;-84
2022/03/27 03:39:34;;;;;;;;;;;6.90;99.90;;;;;;5011891;28;19934;-84
2022/03/27 03:42:04;;;;;;;;;;;7.00;99.90;;;;;;5009338;28;19925;-82
2022/03/27 03:44:31;;;;;;;;;;;6.90;99.90;;;;;;5011950;28;19929;-84
2022/03/27 03:46:59;;;;;;;;;;;6.80;99.90;;;;;;4995950;28;19930;-83
2022/03/27 03:49:27;;;;;;;;;;;6.70;99.90;;;;;;5012496;28;19925;-83
2022/03/27 03:51:54;;;;;;;;;;;6.80;99.90;;;;;;4995744;28;19929;-84
2022/03/27 03:54:23;;;;;;;;;;;6.80;99.90;;;;;;5013194;28;19926;-86
2022/03/27 03:56:52;;;;;;;;;;;6.00;99.90;;;;;;5012166;28;19940;-84
2022/03/27 03:59:20;;;;;;;;;;;6.90;99.90;;;;;;5027843;28;19926;-82
2022/03/27 04:02:00;;;;;;;;;;;6.70;99.90;;;;;;5010750;28;19925;-85
2022/03/27 04:04:28;;;;;;;;;;;6.90;99.90;;;;;;5009124;28;19951;-87
2022/03/27 04:06:56;;;;;;;;;;;7.10;99.90;;;;;;5008373;28;19929;-85
2022/03/27 04:09:24;;;;;;;;;;;6.60;99.90;;;;;;5026253;28;19933;-86
2022/03/27 04:11:52;;;;;;;;;;;6.60;99.90;;;;;;5007645;28;19932;-83
2022/03/27 04:14:20;;;;;;;;;;;6.60;99.90;;;;;;4992541;28;19951;-85
2022/03/27 04:16:50;;;;;;;;;;;6.70;99.90;;;;;;4991965;28;19941;-85
2022/03/27 04:19:18;;;;;;;;;;;6.80;99.90;;;;;;4992850;28;19936;-87
2022/03/27 04:21:46;;;;;;;;;;;7.00;99.90;;;;;;5008753;28;19925;-85
2022/03/27 04:24:14;;;;;;;;;;;7.00;99.90;;;;;;4992584;28;20107;-82
2022/03/27 04:26:43;;;;;;;;;;;7.10;99.90;;;;;;4991608;28;19925;-81
2022/03/27 04:29:11;;;;;;;;;;;7.20;99.90;;;;;;5007146;28;19921;-82
2022/03/27 04:31:39;;;;;;;;;;;7.40;99.90;;;;;;5024050;28;20608;-81
2022/03/27 04:34:08;;;;;;;;;;;7.50;99.90;;;;;;4990554;28;19925;-83
2022/03/27 04:36:37;;;;;;;;;;;6.70;99.90;;;;;;5006567;28;19952;-82
2022/03/27 04:39:05;;;;;;;;;;;7.50;99.90;;;;;;5025083;28;19949;-81
2022/03/27 04:41:33;;;;;;;;;;;7.60;99.90;;;;;;4989855;28;19932;-83
2022/03/27 04:44:04;;;;;;;;;;;7.40;99.90;;;;;;5007000;28;19925;-82
2022/03/27 04:46:32;;;;;;;;;;;7.60;99.90;;;;;;5023549;28;19929;-83
2022/03/27 04:49:01;;;;;;;;;;;8.90;99.90;;;;;;5007705;28;19953;-82
2022/03/27 04:51:29;;;;;;;;;;;7.50;99.90;;;;;;5023965;28;19929;-83
2022/03/27 04:54:00;;;;;;;;;;;7.60;99.90;;;;;;5025288;28;19933;-81
2022/03/27 04:56:28;;;;;;;;;;;7.60;99.90;;;;;;4991336;28;19952;-85
2022/03/27 04:58:58;;;;;;;;;;;7.60;99.90;;;;;;5007023;28;19925;-82
2022/03/27 05:01:29;;;;;;;;;;;7.60;99.90;;;;;;5007786;28;19933;-84
2022/03/27 05:04:00;;;;;;;;;;;7.80;99.90;;;;;;5027407;28;19932;-81
2022/03/27 05:06:29;;;;;;;;;;;7.80;99.90;;;;;;4994713;28;19932;-82
2022/03/27 05:09:00;;;;;;;;;;;7.80;99.90;;;;;;4994114;28;19925;-84
2022/03/27 05:11:29;;;;;;;;;;;8.20;99.90;;;;;;4987158;28;19933;-83
2022/03/27 05:13:58;;;;;;;;;;;7.80;99.90;;;;;;4989111;28;19932;-83
2022/03/27 05:16:29;;;;;;;;;;;7.70;99.90;;;;;;4971518;28;20459;-82
2022/03/27 05:18:59;;;;;;;;;;;8.00;99.90;;;;;;4989829;28;19936;-81
2022/03/27 05:21:28;;;;;;;;;;;7.80;99.90;;;;;;4989741;28;19926;-82
2022/03/27 05:23:58;;;;;;;;;;;7.70;99.90;;;;;;4991029;28;19926;-84
2022/03/27 05:26:33;;;;;;;;;;;7.80;99.90;;;;;;4989830;28;19914;-81
2022/03/27 05:29:10;;;;;;;;;;;7.90;99.90;;;;;;4989600;28;19937;-82
2022/03/27 05:31:41;;;;;;;;;;;8.00;99.90;;;;;;4987735;28;19926;-83
2022/03/27 05:34:11;;;;;;;;;;;7.80;99.90;;;;;;4969028;28;19930;-82
2022/03/27 05:36:45;;;;;;;;;;;7.80;99.90;;;;;;4952286;28;19934;-82
2022/03/27 05:39:13;;;;;;;;;;;7.80;99.90;;;;;;4983653;28;19926;-83
2022/03/27 05:41:41;;;;;;;;;;;6.70;99.90;;;;;;4982050;28;20582;-81
2022/03/27 05:44:10;;;;;;;;;;;8.00;99.90;;;;;;4982806;28;19926;-83
2022/03/27 05:46:45;;;;;;;;;;;7.90;99.90;;;;;;4982085;28;19929;-82
2022/03/27 05:49:13;;;;;;;;;;;7.90;99.90;;;;;;4983572;28;19930;-82
2022/03/27 05:51:46;;;;;;;;;;;7.90;99.90;;;;;;4969382;28;20321;-82
2022/03/27 05:54:25;;;;;;;;;;;9.50;99.90;;;;;;4988054;28;19945;-81
2022/03/27 05:57:18;;;;;;;;;;;7.90;99.90;;;;;;4988052;28;19926;-81
2022/03/27 05:59:47;;;;;;;;;;;9.10;99.90;;;;;;4987748;28;19926;-84
2022/03/27 06:02:17;;;;;;;;;;;8.20;99.90;;;;;;4986495;28;19930;-82
2022/03/27 06:04:56;;;;;;;;;;;7.90;99.90;;;;;;4969800;28;20329;-83
2022/03/27 06:07:29;;;;;;;;;;;7.90;99.90;;;;;;4987084;28;19926;-82
2022/03/27 06:10:01;;;;;;;;;;;8.00;99.90;;;;;;4969238;28;19926;-85
2022/03/27 06:12:33;;;;;;;;;;;8.10;99.90;;;;;;4984459;28;19926;-84
2022/03/27 06:15:04;;;;;;;;;;;8.10;99.90;;;;;;4987107;28;19930;-86
2022/03/27 06:17:43;;;;;;;;;;;8.20;99.90;;;;;;4969667;28;19926;-81
2022/03/27 06:20:14;;;;;;;;;;;8.10;99.90;;;;;;4989618;28;19926;-82
2022/03/27 06:22:44;;;;;;;;;;;8.10;99.90;;;;;;4987801;28;19937;-83
2022/03/27 06:25:13;;;;;;;;;;;8.10;99.90;;;;;;4988520;28;19930;-83
2022/03/27 06:27:45;;;;;;;;;;;8.30;99.90;;;;;;4970284;28;19930;-83
2022/03/27 06:30:18;;;;;;;;;;;8.00;99.90;;;;;;4986909;28;19936;-84
2022/03/27 06:32:47;;;;;;;;;;;8.20;99.90;;;;;;4986328;28;20499;-78
2022/03/27 06:35:16;;;;;;;;;;;8.00;99.90;;;;;;4986236;28;19926;-83
2022/03/27 06:37:46;;;;;;;;;;;8.30;99.90;;;;;;4969067;28;19933;-83
2022/03/27 06:40:15;;;;;;;;;;;8.30;99.90;;;;;;4986352;28;19937;-85
2022/03/27 06:42:45;;;;;;;;;;;8.30;99.90;;;;;;4973422;28;19929;-82
2022/03/27 06:45:15;;;;;;;;;;;8.40;99.90;;;;;;4994181;28;19926;-85
2022/03/27 06:47:46;;;;;;;;;;;8.30;99.90;;;;;;4993493;28;19933;-85
2022/03/27 06:50:22;;;;;;;;;;;8.50;99.90;;;;;;4993533;28;20002;-83
2022/03/27 06:52:50;;;;;;;;;;;8.30;99.90;;;;;;4983732;28;19922;-81
2022/03/27 06:55:20;;;;;;;;;;;8.40;99.90;;;;;;4974680;28;20234;-82
2022/03/27 06:57:52;;;;;;;;;;;8.40;99.90;;;;;;4990441;28;20419;-82
2022/03/27 07:03:13;;;;;;;;;;;8.10;99.90;;;;;;5002664;28;19937;-79
2022/03/27 07:05:43;;;;;;;;;;;8.30;99.90;;;;;;4956146;28;19926;-84
2022/03/27 07:08:14;;;;;;;;;;;8.60;99.90;;;;;;4972242;28;19922;-80
2022/03/27 07:10:44;;;;;;;;;;;8.50;99.90;;;;;;4971148;28;19936;-81
2022/03/27 07:13:14;;;;;;;;;;;8.10;99.90;;;;;;4986208;28;19930;-82
2022/03/27 07:15:44;;;;;;;;;;;8.50;99.90;;;;;;4987454;28;19937;-83
2022/03/27 07:18:15;;;;;;;;;;;8.40;99.90;;;;;;4987288;28;19932;-81
2022/03/27 07:20:44;;;;;;;;;;;8.60;99.90;;;;;;4986138;28;19927;-82
2022/03/27 07:23:15;;;;;;;;;;;8.70;99.90;;;;;;4969458;28;19926;-83
2022/03/27 07:25:45;;;;;;;;;;;8.70;99.90;;;;;;4987403;28;20009;-84
2022/03/27 07:28:14;;;;;;;;;;;8.70;99.90;;;;;;4987348;28;19927;-82
2022/03/27 07:30:43;;;;;;;;;;;8.80;99.90;;;;;;4987386;28;19926;-82
2022/03/27 07:33:21;;;;;;;;;;;8.80;99.90;;;;;;4970269;28;19933;-85
2022/03/27 07:35:53;;;;;;;;;;;9.10;99.90;;;;;;4987880;28;19933;-84
2022/03/27 07:38:22;;;;;;;;;;;8.80;99.90;;;;;;4972236;28;19932;-82
2022/03/27 07:40:49;;;;;;;;;;;8.70;99.90;;;;;;4987642;28;19930;-83
2022/03/27 07:43:18;;;;;;;;;;;8.60;99.90;;;;;;5000170;28;19940;-82
2022/03/27 07:45:48;;;;;;;;;;;8.80;99.90;;;;;;4985494;28;19998;-84
2022/03/27 07:48:18;;;;;;;;;;;8.70;99.90;;;;;;4986392;28;19941;-80
2022/03/27 07:50:54;;;;;;;;;;;8.80;99.90;;;;;;4987327;28;19932;-82
2022/03/27 07:53:23;;;;;;;;;;;8.80;99.90;;;;;;4986992;28;19926;-80
2022/03/27 07:55:53;;;;;;;;;;;8.80;99.90;;;;;;4984572;28;19926;-81
2022/03/27 07:58:27;;;;;;;;;;;8.80;99.90;;;;;;4969094;28;19930;-81
2022/03/27 08:00:56;;;;;;;;;;;8.90;99.90;;;;;;4983199;28;19926;-82
2022/03/27 08:03:24;;;;;;;;;;;8.90;99.90;;;;;;4984196;28;20719;-83
2022/03/27 08:05:52;;;;;;;;;;;9.80;99.90;;;;;;5001513;28;20010;-84
2022/03/27 08:08:20;;;;;;;;;;;8.90;99.90;;;;;;4989113;28;19930;-82
2022/03/27 08:10:48;;;;;;;;;;;8.90;99.90;;;;;;4985085;28;19934;-82
2022/03/27 08:13:18;;;;;;;;;;;9.40;99.90;;;;;;4959318;29;20093;-83
2022/03/27 08:15:46;;;;;;;;;;;9.00;99.90;;;;;;4984697;28;19926;-82
2022/03/27 08:18:15;;;;;;;;;;;9.00;99.90;;;;;;4989370;28;19930;-83
2022/03/27 08:20:43;;;;;;;;;;;9.00;99.90;;;;;;4986743;28;19926;-82
2022/03/27 08:23:13;;;;;;;;;;;9.10;99.90;;;;;;4988797;28;19926;-81
2022/03/27 08:28:29;;;;;;;;;;;8.70;99.90;;;;;;4990308;28;19932;-82
2022/03/27 08:30:57;;;;;;;;;;;9.10;99.90;;;;;;4988126;28;20445;-83
2022/03/27 08:33:27;;;;;;;;;;;9.10;99.90;;;;;;4986670;28;19930;-82
2022/03/27 08:35:59;;;;;;;;;;;9.00;99.90;;;;;;4988469;28;19927;-83
2022/03/27 08:38:28;;;;;;;;;;;9.00;99.90;;;;;;4987705;28;19937;-82
2022/03/27 08:41:00;;;;;;;;;;;9.20;99.90;;;;;;4970991;28;19930;-84
2022/03/27 08:43:33;;;;;;;;;;;9.50;99.90;;;;;;4972825;28;19936;-82
2022/03/27 08:46:03;;;;;;;;;;;9.50;99.90;;;;;;4983061;28;19930;-82
2022/03/27 08:48:36;;;;;;;;;;;9.30;99.90;;;;;;4985732;28;19930;-82
2022/03/27 08:51:07;;;;;;;;;;;9.60;99.90;;;;;;4972950;28;20259;-83
2022/03/27 08:53:45;;;;;;;;;;;9.30;99.90;;;;;;4986805;28;19937;-84
2022/03/27 08:56:18;;;;;;;;;;;9.50;99.90;;;;;;4987431;28;19938;-84
2022/03/27 08:58:48;;;;;;;;;;;9.40;99.90;;;;;;4986396;28;19936;-83
2022/03/27 09:01:17;;;;;;;;;;;9.20;99.90;;;;;;4986900;28;19932;-82
2022/03/27 09:03:47;;;;;;;;;;;9.40;99.90;;;;;;4986584;28;19944;-84
2022/03/27 09:06:16;;;;;;;;;;;9.00;99.90;;;;;;4985664;28;19930;-84
2022/03/27 09:08:45;;;;;;;;;;;9.30;99.90;;;;;;4987155;28;19932;-83
2022/03/27 09:11:15;;;;;;;;;;;10.60;99.90;;;;;;4987002;28;19999;-83
2022/03/27 09:13:47;;;;;;;;;;;9.40;99.90;;;;;;4988185;28;19937;-82
2022/03/27 09:16:18;;;;;;;;;;;9.30;99.90;;;;;;4970344;28;19926;-83
2022/03/27 09:18:51;;;;;;;;;;;9.40;99.90;;;;;;4953878;28;19929;-84
2022/03/27 09:22:15;;;;;;;;;;;;;;;;;;;;;
2022/03/27 09:25:17;;;;;;;;;;;9.80;99.90;;;;;;5003571;28;19926;-86
2022/03/27 09:28:28;;;;;;;;;;;9.20;99.90;;;;;;4987221;28;19930;-85
2022/03/27 09:31:01;;;;;;;;;;;9.30;99.90;;;;;;4972341;28;19993;-85
2022/03/27 09:33:46;;;;;;;;;;;9.70;99.90;;;;;;4987047;28;19932;-85
2022/03/27 09:36:40;;;;;;;;;;;10.50;99.90;;;;;;4974751;28;19945;-84
2022/03/27 09:39:56;;;;;;;;;;;9.40;99.90;;;;;;4974880;28;19937;-85
2022/03/27 09:42:34;;;;;;;;;;;9.60;99.90;;;;;;4970289;28;20263;-85
2022/03/27 09:45:16;;;;;;;;;;;9.40;99.90;;;;;;4957063;28;19927;-84
2022/03/27 09:48:11;;;;;;;;;;;9.20;99.90;;;;;;4990105;28;19932;-85
2022/03/27 09:50:47;;;;;;;;;;;9.30;99.90;;;;;;4971857;29;19936;-85
2022/03/27 09:53:26;;;;;;;;;;;9.30;99.90;;;;;;4971435;29;19930;-85
2022/03/27 09:55:58;;;;;;;;;;;9.40;99.90;;;;;;4990693;28;19926;-84
2022/03/27 09:58:39;;;;;;;;;;;9.50;99.90;;;;;;4990565;28;19930;-84
2022/03/27 10:01:17;;;;;;;;;;;8.50;99.90;;;;;;4972820;28;19930;-83
2022/03/27 10:04:21;;;;;;;;;;;9.60;99.90;;;;;;4988359;28;19933;-83
2022/03/27 10:06:49;;;;;;;;;;;9.60;99.90;;;;;;4945394;28;19957;-82
2022/03/27 10:09:19;;;;;;;;;;;9.60;99.90;;;;;;4988016;28;19933;-84
2022/03/27 10:11:49;;;;;;;;;;;9.60;99.90;;;;;;5026830;28;19943;-82
2022/03/27 10:14:20;;;;;;;;;;;8.70;99.90;;;;;;4993910;28;19930;-83
2022/03/27 10:16:48;;;;;;;;;;;9.60;99.90;;;;;;5010990;28;19936;-84
2022/03/27 10:19:31;;;;;;;;;;;9.60;99.90;;;;;;4994337;28;19930;-83
2022/03/27 10:22:01;;;;;;;;;;;9.70;99.90;;;;;;5015924;28;19932;-88
2022/03/27 10:24:32;;;;;;;;;;;9.60;99.90;;;;;;5023105;28;19933;-82
2022/03/27 10:27:02;;;;;;;;;;;9.60;99.90;;;;;;5026271;28;20519;-85
2022/03/27 10:29:32;;;;;;;;;;;9.60;99.90;;;;;;5024699;28;19929;-81
2022/03/27 10:32:02;;;;;;;;;;;9.50;99.90;;;;;;5022519;28;19925;-83
2022/03/27 10:34:43;;;;;;;;;;;9.20;99.90;;;;;;5007407;28;19925;-82
2022/03/27 10:37:20;;;;;;;;;;;9.70;99.90;;;;;;5008307;28;19936;-85
2022/03/27 10:39:58;;;;;;;;;;;9.60;99.90;;;;;;5025874;28;19940;-82
2022/03/27 10:42:34;;;;;;;;;;;9.60;99.90;;;;;;5008010;28;19926;-83
2022/03/27 10:45:13;;;;;;;;;;;10.00;99.90;;;;;;5023609;28;19940;-88
2022/03/27 10:47:42;;;;;;;;;;;10.00;99.90;;;;;;5023027;28;19983;-85
2022/03/27 10:50:10;;;;;;;;;;;9.80;99.90;;;;;;5023214;28;19925;-85
2022/03/27 10:52:45;;;;;;;;;;;10.00;99.90;;;;;;4980005;28;19930;-84
2022/03/27 10:55:14;;;;;;;;;;;10.10;99.90;;;;;;5003951;28;19933;-83
2022/03/27 10:57:52;;;;;;;;;;;8.40;99.90;;;;;;4995544;28;19925;-83
2022/03/27 11:00:40;;;;;;;;;;;10.10;99.90;;;;;;5018101;28;19947;-86
2022/03/27 11:03:37;;;;;;;;;;;10.10;99.90;;;;;;5028255;28;19924;-87
2022/03/27 11:06:18;;;;;;;;;;;8.80;99.90;;;;;;5015425;28;19933;-83
2022/03/27 11:08:47;;;;;;;;;;;10.10;99.90;;;;;;4996084;28;20126;-84
2022/03/27 11:11:33;;;;;;;;;;;10.10;99.90;;;;;;4960064;28;19941;-83
2022/03/27 11:14:08;;;;;;;;;;;10.20;99.90;;;;;;4987372;28;19933;-81
2022/03/27 11:16:55;;;;;;;;;;;10.40;99.90;;;;;;4989379;28;19926;-83
2022/03/27 11:19:44;;;;;;;;;;;10.30;99.90;;;;;;4988970;28;19929;-83
2022/03/27 11:22:47;;;;;;;;;;;10.50;99.90;;;;;;4989380;28;19932;-84
2022/03/27 11:25:26;;;;;;;;;;;10.40;99.90;;;;;;4975769;28;19926;-83
2022/03/27 11:28:16;;;;;;;;;;;10.40;99.90;;;;;;4988545;28;19930;-85
2022/03/27 11:30:49;;;;;;;;;;;11.50;99.90;;;;;;4991190;28;19965;-88
2022/03/27 11:33:30;;;;;;;;;;;10.40;99.90;;;;;;4988659;28;19934;-89
2022/03/27 11:36:01;;;;;;;;;;;10.50;99.90;;;;;;4987262;28;19930;-88
2022/03/27 11:38:35;;;;;;;;;;;10.30;99.90;;;;;;5004219;28;19936;-90
2022/03/27 11:41:42;;;;;;;;;;;10.80;99.90;;;;;;5002481;28;19926;-89
2022/03/27 11:44:18;;;;;;;;;;;10.60;99.90;;;;;;4928754;29;19934;-85
2022/03/27 11:47:06;;;;;;;;;;;10.30;99.90;;;;;;4983912;28;19926;-83
2022/03/27 11:49:39;;;;;;;;;;;10.50;99.90;;;;;;4984763;28;19926;-84
2022/03/27 11:52:09;;;;;;;;;;;10.40;99.90;;;;;;4984711;28;19944;-87
2022/03/27 11:54:38;;;;;;;;;;;10.50;99.90;;;;;;4999421;28;19933;-85
2022/03/27 11:57:10;;;;;;;;;;;10.40;99.90;;;;;;4983403;28;19934;-86
2022/03/27 11:59:48;;;;;;;;;;;10.50;99.90;;;;;;4987611;28;19940;-88
2022/03/27 12:02:22;;;;;;;;;;;10.50;99.90;;;;;;4999819;28;20001;-84
2022/03/27 12:05:18;;;;;;;;;;;10.80;99.90;;;;;;4971936;28;19926;-82
2022/03/27 12:07:48;;;;;;;;;;;10.50;99.90;;;;;;4980306;28;20324;-83
2022/03/27 12:10:19;;;;;;;;;;;10.50;99.90;;;;;;4995719;28;19926;-83
2022/03/27 12:13:00;;;;;;;;;;;10.50;99.90;;;;;;5020052;28;19926;-83
2022/03/27 12:15:36;;;;;;;;;;;10.50;99.90;;;;;;5019632;28;19925;-83
2022/03/27 12:18:04;;;;;;;;;;;11.10;99.90;;;;;;5003698;28;19925;-83
2022/03/27 12:20:53;;;;;;;;;;;11.30;99.90;;;;;;5003804;28;19929;-83
2022/03/27 12:23:21;;;;;;;;;;;9.40;99.90;;;;;;5021685;28;19940;-82
2022/03/27 12:25:56;;;;;;;;;;;10.70;99.90;;;;;;5021012;28;19933;-86
2022/03/27 12:31:24;;;;;;;;;;;10.70;99.90;;;;;;5007277;28;19929;-84
2022/03/27 12:33:55;;;;;;;;;;;10.80;99.90;;;;;;5008377;28;19925;-86
2022/03/27 12:36:55;;;;;;;;;;;11.30;99.90;;;;;;5009125;28;19929;-85
2022/03/27 12:39:53;;;;;;;;;;;9.60;99.90;;;;;;4985237;28;19929;-86
2022/03/27 12:42:46;;;;;;;;;;;10.80;99.90;;;;;;4949804;29;19933;-86
2022/03/27 13:02:46;;;;;;;;;;;11.10;99.90;;;;;;4791794;29;19928;-89
2022/03/27 13:06:30;;;;;;;;;;;;;;;;;;;;;
2022/03/27 13:14:47;;;;;;;;;;;9.60;99.90;;;;;;4836601;29;19924;-86
2022/03/27 13:18:45;;;;;;;;;;;;;;;;;;;;;
2022/03/27 13:22:19;;;;;;;;;;;11.10;99.90;;;;;;4863064;29;19928;-86
2022/03/27 13:26:05;;;;;;;;;;;11.30;99.90;;;;;;4857509;29;19939;-86
2022/03/27 13:30:00;;;;;;;;;;;;;;;;;;;;;
2022/03/27 13:46:31;;;;;;;;;;;11.30;99.90;;;;;;4774936;29;19929;-87
2022/03/27 13:54:14;;;;;;;;;;;;;;;;;;;;;
2022/03/27 14:02:25;;;;;;;;;;;;;;;;;;;;;
2022/03/27 14:19:29;;;;;;;;;;;;;;;;;;;;;
2022/03/27 14:27:40;;;;;;;;;;;;;;;;;;;;;
2022/03/27 14:56:18;;;;;;;;;;;11.90;99.90;;;;;;4779223;23;19937;-90
2022/03/27 14:58:45;;;;;;;;;;;12.60;99.90;;;;;;4997918;28;19939;-87
2022/03/27 15:01:13;;;;;;;;;;;12.80;99.90;;;;;;4998418;28;20328;-87
2022/03/27 15:03:43;;;;;;;;;;;13.00;99.90;;;;;;4968692;28;19926;-86
2022/03/27 15:06:11;;;;;;;;;;;13.20;99.90;;;;;;5002739;28;19930;-89
2022/03/27 15:08:42;;;;;;;;;;;13.50;99.90;;;;;;4972021;28;19960;-90
2022/03/27 15:11:11;;;;;;;;;;;14.00;99.90;;;;;;4987789;28;20277;-89
2022/03/27 15:13:39;;;;;;;;;;;14.40;99.90;;;;;;4981738;28;19933;-92
2022/03/27 15:16:09;;;;;;;;;;;15.10;99.90;;;;;;4984802;28;20259;-89
2022/03/27 15:18:36;;;;;;;;;;;15.70;99.90;;;;;;5000730;28;19930;-90
2022/03/27 15:21:07;;;;;;;;;;;16.20;99.90;;;;;;4983811;28;19933;-90
2022/03/27 15:23:34;;;;;;;;;;;17.00;99.90;;;;;;4966496;28;19926;-92
2022/03/27 15:26:03;;;;;;;;;;;17.30;99.90;;;;;;4978835;28;19933;-89
2022/03/27 15:28:33;;;;;;;;;;;17.70;99.90;;;;;;4980025;28;19926;-88
2022/03/27 15:31:02;;;;;;;;;;;17.80;99.90;;;;;;4991006;28;19930;-88
2022/03/27 15:33:30;;;;;;;;;;;17.90;99.90;;;;;;4999567;28;19926;-86
2022/03/27 15:36:02;;;;;;;;;;;18.00;99.90;;;;;;4952309;28;19930;-89
2022/03/27 15:38:35;;;;;;;;;;;18.10;99.90;;;;;;4983135;28;19926;-90
2022/03/27 15:41:16;;;;;;;;;;;18.10;99.90;;;;;;4985369;28;19937;-89
2022/03/27 15:43:53;;;;;;;;;;;18.20;99.80;;;;;;4999094;28;20312;-91
2022/03/27 15:46:29;;;;;;;;;;;18.50;99.90;;;;;;4980337;28;19932;-88
2022/03/27 15:49:19;;;;;;;;;;;18.90;98.60;;;;;;4967938;28;19933;-90
2022/03/27 15:51:58;;;;;;;;;;;19.10;97.20;;;;;;4967730;28;19937;-87
2022/03/27 15:54:37;;;;;;;;;;;19.30;99.00;;;;;;4973987;28;19926;-87
2022/03/27 15:57:12;;;;;;;;;;;19.40;98.50;;;;;;4960323;28;20587;-87
2022/03/27 15:59:53;;;;;;;;;;;19.40;98.00;;;;;;4963272;28;19927;-86
2022/03/27 16:02:27;;;;;;;;;;;19.40;97.60;;;;;;4965575;28;19937;-92
2022/03/27 16:05:13;;;;;;;;;;;18.10;95.20;;;;;;4963611;28;19930;-88
2022/03/27 16:07:41;;;;;;;;;;;19.40;96.40;;;;;;4964224;28;19941;-89
2022/03/27 16:10:11;;;;;;;;;;;19.50;96.40;;;;;;4943837;29;20263;-89
2022/03/27 16:12:39;;;;;;;;;;;19.80;96.40;;;;;;4961120;29;19938;-90
2022/03/27 16:15:08;;;;;;;;;;;20.00;95.70;;;;;;4959704;28;19937;-88
2022/03/27 16:17:35;;;;;;;;;;;19.90;95.40;;;;;;4976151;28;19930;-88
2022/03/27 16:20:04;;;;;;;;;;;20.00;95.10;;;;;;4956303;29;19954;-87
2022/03/27 16:22:31;;;;;;;;;;;20.10;95.20;;;;;;4954216;28;19934;-87
2022/03/27 16:25:00;;;;;;;;;;;20.00;94.10;;;;;;4957365;28;19942;-87
2022/03/27 16:27:30;;;;;;;;;;;19.80;94.20;;;;;;4957898;28;19934;-86
2022/03/27 16:29:59;;;;;;;;;;;19.90;94.60;;;;;;4957914;29;20531;-89
2022/03/27 16:32:32;;;;;;;;;;;19.90;94.30;;;;;;4940962;29;19931;-90
2022/03/27 16:35:00;;;;;;;;;;;20.00;94.20;;;;;;4957678;29;19927;-89
2022/03/27 16:37:29;;;;;;;;;;;20.00;93.90;;;;;;4954148;28;19933;-89
2022/03/27 16:39:57;;;;;;;;;;;20.00;93.60;;;;;;4955421;29;19941;-88
2022/03/27 16:42:26;;;;;;;;;;;20.00;93.50;;;;;;4957812;28;19937;-90
2022/03/27 16:44:54;;;;;;;;;;;20.10;92.30;;;;;;4956754;29;19926;-85
2022/03/27 16:47:23;;;;;;;;;;;19.90;92.80;;;;;;4939264;29;19935;-92
2022/03/27 16:49:50;;;;;;;;;;;19.80;92.80;;;;;;4955183;28;19930;-88
2022/03/27 16:52:20;;;;;;;;;;;19.70;93.00;;;;;;4943561;29;20337;-87
2022/03/27 16:54:47;;;;;;;;;;;19.60;93.10;;;;;;4955401;29;19930;-89